Rubonia, Florida
Current Conditions -  °F | °C
As of 5:53 AM on Friday 24 Oct 2014 (Local Time) from KSRQ Reporting Station
Clear Clear  
Wind Chill: 62°   Ceiling: Unl
Heat Index: 62°   Visibility: 10mi
Dew Point: 56°   Wind: 7mph
Humidity: 80%   Direction: 40°NE
Pressure: 29.92"   Gusts: NA
Location:  27.5834°N, 82.5347°W
Report Text: KSRQ 240953Z 04006KT 10SM CLR 17/13 A2992 RMK AO2 SLP131 T01670133
Loading
Personal Weather Stations






























Interactive Weather Map
Tropical Storm Tracking
New forecast layout! Learn more

10-Day Weather Forecast

Advertisements
Track Severe Weather on mobile